sensor_id;sensor_type;location;lat;lon;timestamp;pressure;altitude;pressure_sealevel;temperature;humidity
3748;BME280;1889;50.058;8.688;2023-05-02T00:01:23;100310.53;;;16.79;53.57
3748;BME280;1889;50.058;8.688;2023-05-02T00:03:52;100311.30;;;16.61;53.81
3748;BME280;1889;50.058;8.688;2023-05-02T00:06:21;100309.52;;;16.71;54.14
3748;BME280;1889;50.058;8.688;2023-05-02T00:08:51;100316.14;;;16.61;53.93
3748;BME280;1889;50.058;8.688;2023-05-02T00:11:20;100315.81;;;16.57;54.75
3748;BME280;1889;50.058;8.688;2023-05-02T00:13:51;100318.50;;;16.46;54.81
3748;BME280;1889;50.058;8.688;2023-05-02T00:16:20;100323.93;;;16.19;55.63
3748;BME280;1889;50.058;8.688;2023-05-02T00:18:50;100320.45;;;16.52;54.29
3748;BME280;1889;50.058;8.688;2023-05-02T00:21:19;100315.94;;;16.77;53.84
3748;BME280;1889;50.058;8.688;2023-05-02T00:23:50;100311.64;;;16.95;53.48
3748;BME280;1889;50.058;8.688;2023-05-02T00:26:19;100310.81;;;17.05;52.58
3748;BME280;1889;50.058;8.688;2023-05-02T00:28:49;100312.98;;;17.17;52.12
3748;BME280;1889;50.058;8.688;2023-05-02T00:31:18;100307.45;;;17.22;52.31
3748;BME280;1889;50.058;8.688;2023-05-02T00:33:48;100306.47;;;17.24;52.90
3748;BME280;1889;50.058;8.688;2023-05-02T00:36:18;100307.01;;;17.32;52.60
3748;BME280;1889;50.058;8.688;2023-05-02T00:38:48;100312.91;;;17.29;51.91
3748;BME280;1889;50.058;8.688;2023-05-02T00:41:17;100312.91;;;17.29;51.91
3748;BME280;1889;50.058;8.688;2023-05-02T00:43:46;100313.09;;;17.14;52.84
3748;BME280;1889;50.058;8.688;2023-05-02T00:46:16;100313.09;;;17.14;52.84
3748;BME280;1889;50.058;8.688;2023-05-02T00:48:45;100314.39;;;17.26;52.07
3748;BME280;1889;50.058;8.688;2023-05-02T00:51:14;100315.75;;;17.14;52.95
3748;BME280;1889;50.058;8.688;2023-05-02T00:53:44;100315.75;;;17.14;52.95
3748;BME280;1889;50.058;8.688;2023-05-02T00:56:13;100315.15;;;17.07;52.22
3748;BME280;1889;50.058;8.688;2023-05-02T00:58:43;100315.15;;;17.07;52.22
3748;BME280;1889;50.058;8.688;2023-05-02T01:01:35;100323.97;;;16.64;54.11
3748;BME280;1889;50.058;8.688;2023-05-02T01:04:10;100323.97;;;16.64;54.11
3748;BME280;1889;50.058;8.688;2023-05-02T01:07:00;100329.27;;;16.06;55.64
3748;BME280;1889;50.058;8.688;2023-05-02T01:09:41;100330.48;;;15.86;57.01
3748;BME280;1889;50.058;8.688;2023-05-02T01:12:34;100331.45;;;15.32;58.75
3748;BME280;1889;50.058;8.688;2023-05-02T01:15:06;100332.59;;;15.50;57.72
3748;BME280;1889;50.058;8.688;2023-05-02T01:17:36;100338.07;;;15.72;56.82
3748;BME280;1889;50.058;8.688;2023-05-02T01:20:09;100338.07;;;15.72;56.82
3748;BME280;1889;50.058;8.688;2023-05-02T01:22:39;100339.22;;;15.76;56.96
3748;BME280;1889;50.058;8.688;2023-05-02T01:25:26;100338.58;;;15.70;56.77
3748;BME280;1889;50.058;8.688;2023-05-02T01:28:04;100338.58;;;15.70;56.77
3748;BME280;1889;50.058;8.688;2023-05-02T01:30:33;100343.98;;;15.91;56.32
3748;BME280;1889;50.058;8.688;2023-05-02T01:33:16;100351.89;;;15.93;56.19
3748;BME280;1889;50.058;8.688;2023-05-02T01:35:48;100350.28;;;15.64;57.38
3748;BME280;1889;50.058;8.688;2023-05-02T01:38:18;100351.24;;;15.61;57.23
3748;BME280;1889;50.058;8.688;2023-05-02T01:40:51;100351.21;;;15.75;56.64
3748;BME280;1889;50.058;8.688;2023-05-02T01:43:21;100352.17;;;15.85;56.24
3748;BME280;1889;50.058;8.688;2023-05-02T01:45:52;100359.03;;;15.91;56.13
3748;BME280;1889;50.058;8.688;2023-05-02T01:48:23;100364.01;;;15.63;57.04
3748;BME280;1889;50.058;8.688;2023-05-02T01:50:54;100360.62;;;15.58;57.07
3748;BME280;1889;50.058;8.688;2023-05-02T01:53:25;100364.29;;;15.81;56.11
3748;BME280;1889;50.058;8.688;2023-05-02T01:55:58;100364.29;;;15.81;56.11
3748;BME280;1889;50.058;8.688;2023-05-02T01:58:29;100369.25;;;15.90;56.03
3748;BME280;1889;50.058;8.688;2023-05-02T02:00:59;100374.00;;;15.93;55.80
3748;BME280;1889;50.058;8.688;2023-05-02T02:03:30;100379.85;;;15.78;56.16
3748;BME280;1889;50.058;8.688;2023-05-02T02:06:00;100382.82;;;15.69;56.53
3748;BME280;1889;50.058;8.688;2023-05-02T02:08:30;100386.37;;;15.56;57.10
3748;BME280;1889;50.058;8.688;2023-05-02T02:11:03;100385.33;;;15.60;56.94
3748;BME280;1889;50.058;8.688;2023-05-02T02:13:38;100393.67;;;15.75;56.55
3748;BME280;1889;50.058;8.688;2023-05-02T02:16:10;100391.84;;;15.77;56.41
3748;BME280;1889;50.058;8.688;2023-05-02T02:18:41;100396.02;;;15.84;56.29
3748;BME280;1889;50.058;8.688;2023-05-02T02:21:15;100395.44;;;15.62;56.90
3748;BME280;1889;50.058;8.688;2023-05-02T02:23:48;100391.09;;;15.60;56.84
3748;BME280;1889;50.058;8.688;2023-05-02T02:26:20;100391.09;;;15.60;56.84
3748;BME280;1889;50.058;8.688;2023-05-02T02:28:50;100404.41;;;15.72;56.83
3748;BME280;1889;50.058;8.688;2023-05-02T02:31:19;100404.06;;;15.15;58.90
3748;BME280;1889;50.058;8.688;2023-05-02T02:33:49;100404.06;;;15.15;58.90
3748;BME280;1889;50.058;8.688;2023-05-02T02:37:28;100409.53;;;15.09;59.10
3748;BME280;1889;50.058;8.688;2023-05-02T02:39:25;100410.77;;;15.12;58.95
3748;BME280;1889;50.058;8.688;2023-05-02T02:42:02;100410.88;;;14.66;60.59
3748;BME280;1889;50.058;8.688;2023-05-02T02:47:31;100418.36;;;15.09;59.17
3748;BME280;1889;50.058;8.688;2023-05-02T02:50:08;100416.78;;;15.04;59.26
3748;BME280;1889;50.058;8.688;2023-05-02T02:53:45;100423.29;;;15.21;58.56
3748;BME280;1889;50.058;8.688;2023-05-02T03:00:41;100429.34;;;15.12;58.99
3748;BME280;1889;50.058;8.688;2023-05-02T03:03:12;100419.81;;;15.19;58.58
3748;BME280;1889;50.058;8.688;2023-05-02T03:05:42;100424.58;;;15.23;58.50
3748;BME280;1889;50.058;8.688;2023-05-02T03:08:12;100425.44;;;15.09;58.97
3748;BME280;1889;50.058;8.688;2023-05-02T03:10:41;100427.64;;;15.09;58.85
3748;BME280;1889;50.058;8.688;2023-05-02T03:13:11;100425.77;;;15.13;58.52
3748;BME280;1889;50.058;8.688;2023-05-02T03:18:25;100435.72;;;15.19;58.44
3748;BME280;1889;50.058;8.688;2023-05-02T03:20:55;100439.33;;;14.89;59.37
3748;BME280;1889;50.058;8.688;2023-05-02T03:23:24;100441.80;;;15.08;58.76
3748;BME280;1889;50.058;8.688;2023-05-02T03:25:53;100445.61;;;15.14;58.62
3748;BME280;1889;50.058;8.688;2023-05-02T03:28:23;100444.77;;;14.99;58.98
3748;BME280;1889;50.058;8.688;2023-05-02T03:30:52;100447.34;;;15.01;59.08
3748;BME280;1889;50.058;8.688;2023-05-02T03:33:21;100446.16;;;15.11;58.97
3748;BME280;1889;50.058;8.688;2023-05-02T03:35:51;100452.62;;;15.30;58.45
3748;BME280;1889;50.058;8.688;2023-05-02T03:38:20;100453.79;;;14.92;59.75
3748;BME280;1889;50.058;8.688;2023-05-02T03:40:49;100464.27;;;14.97;59.77
3748;BME280;1889;50.058;8.688;2023-05-02T03:43:19;100466.65;;;15.06;59.73
3748;BME280;1889;50.058;8.688;2023-05-02T03:45:48;100473.83;;;14.42;61.81
3748;BME280;1889;50.058;8.688;2023-05-02T03:48:17;100477.91;;;14.68;61.05
3748;BME280;1889;50.058;8.688;2023-05-02T03:50:47;100486.99;;;14.91;60.34
3748;BME280;1889;50.058;8.688;2023-05-02T03:53:16;100488.98;;;14.51;61.81
3748;BME280;1889;50.058;8.688;2023-05-02T03:55:46;100494.30;;;14.82;60.72
3748;BME280;1889;50.058;8.688;2023-05-02T03:58:15;100493.84;;;14.83;60.90
3748;BME280;1889;50.058;8.688;2023-05-02T04:00:44;100489.08;;;14.79;61.09
3748;BME280;1889;50.058;8.688;2023-05-02T04:03:14;100493.78;;;14.54;62.32
3748;BME280;1889;50.058;8.688;2023-05-02T04:05:43;100498.30;;;15.10;60.36
3748;BME280;1889;50.058;8.688;2023-05-02T04:08:13;100498.30;;;15.10;60.36
3748;BME280;1889;50.058;8.688;2023-05-02T04:10:42;100499.01;;;14.57;62.17
3748;BME280;1889;50.058;8.688;2023-05-02T04:13:12;100495.17;;;14.83;61.25
3748;BME280;1889;50.058;8.688;2023-05-02T04:15:41;100498.80;;;14.94;61.23
3748;BME280;1889;50.058;8.688;2023-05-02T04:18:12;100498.80;;;14.94;61.23
3748;BME280;1889;50.058;8.688;2023-05-02T04:20:44;100497.70;;;15.01;60.71
3748;BME280;1889;50.058;8.688;2023-05-02T04:23:13;100501.41;;;15.10;60.49
3748;BME280;1889;50.058;8.688;2023-05-02T04:25:53;100508.22;;;15.18;60.17
3748;BME280;1889;50.058;8.688;2023-05-02T04:28:23;100511.74;;;15.19;60.15
3748;BME280;1889;50.058;8.688;2023-05-02T04:30:53;100514.36;;;15.20;60.13
3748;BME280;1889;50.058;8.688;2023-05-02T04:33:22;100523.83;;;15.00;60.75
3748;BME280;1889;50.058;8.688;2023-05-02T04:35:51;100522.09;;;15.13;60.51
3748;BME280;1889;50.058;8.688;2023-05-02T04:38:21;100530.50;;;15.13;60.55
3748;BME280;1889;50.058;8.688;2023-05-02T04:40:50;100533.38;;;15.20;60.18
3748;BME280;1889;50.058;8.688;2023-05-02T04:43:20;100545.27;;;15.21;60.26
3748;BME280;1889;50.058;8.688;2023-05-02T04:45:49;100546.33;;;15.16;60.55
3748;BME280;1889;50.058;8.688;2023-05-02T04:48:18;100557.12;;;15.08;61.01
3748;BME280;1889;50.058;8.688;2023-05-02T04:50:49;100560.34;;;15.34;60.35
3748;BME280;1889;50.058;8.688;2023-05-02T04:53:20;100567.99;;;15.30;60.40
3748;BME280;1889;50.058;8.688;2023-05-02T04:55:50;100569.50;;;15.39;60.21
3748;BME280;1889;50.058;8.688;2023-05-02T04:58:19;100569.56;;;15.50;59.84
3748;BME280;1889;50.058;8.688;2023-05-02T05:00:49;100578.36;;;15.52;59.87
3748;BME280;1889;50.058;8.688;2023-05-02T05:03:18;100577.20;;;15.62;59.72
3748;BME280;1889;50.058;8.688;2023-05-02T05:05:47;100576.21;;;15.65;59.67
3748;BME280;1889;50.058;8.688;2023-05-02T05:08:17;100587.53;;;15.72;59.57
3748;BME280;1889;50.058;8.688;2023-05-02T05:10:46;100586.66;;;15.71;59.76
3748;BME280;1889;50.058;8.688;2023-05-02T05:13:15;100591.36;;;15.76;59.81
3748;BME280;1889;50.058;8.688;2023-05-02T05:15:46;100594.09;;;16.01;58.85
3748;BME280;1889;50.058;8.688;2023-05-02T05:18:15;100601.11;;;16.03;58.75
3748;BME280;1889;50.058;8.688;2023-05-02T05:20:45;100601.11;;;16.03;58.75
3748;BME280;1889;50.058;8.688;2023-05-02T05:23:14;100603.80;;;16.15;58.28
3748;BME280;1889;50.058;8.688;2023-05-02T05:25:43;100613.52;;;16.16;58.27
3748;BME280;1889;50.058;8.688;2023-05-02T05:28:13;100612.84;;;16.23;58.14
3748;BME280;1889;50.058;8.688;2023-05-02T05:30:42;100611.52;;;16.23;58.31
3748;BME280;1889;50.058;8.688;2023-05-02T05:33:12;100621.75;;;15.81;59.86
3748;BME280;1889;50.058;8.688;2023-05-02T05:35:42;100623.34;;;15.86;59.90
3748;BME280;1889;50.058;8.688;2023-05-02T05:38:11;100627.12;;;15.92;59.59
3748;BME280;1889;50.058;8.688;2023-05-02T05:40:40;100632.31;;;16.10;59.34
3748;BME280;1889;50.058;8.688;2023-05-02T05:43:10;100636.41;;;16.20;59.04
3748;BME280;1889;50.058;8.688;2023-05-02T05:45:39;100640.69;;;16.24;58.78
3748;BME280;1889;50.058;8.688;2023-05-02T05:48:08;100650.48;;;16.09;58.60
3748;BME280;1889;50.058;8.688;2023-05-02T05:50:38;100653.27;;;16.19;58.42
3748;BME280;1889;50.058;8.688;2023-05-02T05:53:07;100655.95;;;16.46;57.47
3748;BME280;1889;50.058;8.688;2023-05-02T05:55:36;100655.95;;;16.46;57.47
3748;BME280;1889;50.058;8.688;2023-05-02T05:58:06;100657.27;;;16.46;57.47
3748;BME280;1889;50.058;8.688;2023-05-02T06:00:36;100659.35;;;16.49;57.30
3748;BME280;1889;50.058;8.688;2023-05-02T06:03:05;100661.19;;;16.62;57.06
3748;BME280;1889;50.058;8.688;2023-05-02T06:05:35;100666.84;;;16.64;56.86
3748;BME280;1889;50.058;8.688;2023-05-02T06:08:04;100664.23;;;16.76;56.24
3748;BME280;1889;50.058;8.688;2023-05-02T06:10:33;100670.02;;;16.75;56.36
3748;BME280;1889;50.058;8.688;2023-05-02T06:13:03;100671.42;;;16.59;56.44
3748;BME280;1889;50.058;8.688;2023-05-02T06:15:33;100677.05;;;16.63;56.71
3748;BME280;1889;50.058;8.688;2023-05-02T06:18:02;100672.62;;;16.77;56.36
3748;BME280;1889;50.058;8.688;2023-05-02T06:20:32;100671.48;;;16.84;56.01
3748;BME280;1889;50.058;8.688;2023-05-02T06:23:03;100672.91;;;16.94;55.49
3748;BME280;1889;50.058;8.688;2023-05-02T06:25:32;100682.09;;;16.97;55.06
3748;BME280;1889;50.058;8.688;2023-05-02T06:28:03;100682.09;;;16.97;55.06
3748;BME280;1889;50.058;8.688;2023-05-02T06:30:33;100681.88;;;17.03;54.93
3748;BME280;1889;50.058;8.688;2023-05-02T06:33:05;100682.82;;;16.89;55.27
3748;BME280;1889;50.058;8.688;2023-05-02T06:35:34;100688.87;;;16.94;55.27
3748;BME280;1889;50.058;8.688;2023-05-02T06:38:04;100694.53;;;16.70;55.49
3748;BME280;1889;50.058;8.688;2023-05-02T06:40:33;100699.38;;;16.97;55.13
3748;BME280;1889;50.058;8.688;2023-05-02T06:43:04;100699.38;;;16.97;55.13
3748;BME280;1889;50.058;8.688;2023-05-02T06:45:33;100694.98;;;16.96;54.83
3748;BME280;1889;50.058;8.688;2023-05-02T06:48:03;100700.94;;;17.16;54.19
3748;BME280;1889;50.058;8.688;2023-05-02T06:50:32;100709.27;;;16.94;54.78
3748;BME280;1889;50.058;8.688;2023-05-02T06:53:03;100716.72;;;17.09;54.50
3748;BME280;1889;50.058;8.688;2023-05-02T06:55:33;100714.07;;;17.21;54.15
3748;BME280;1889;50.058;8.688;2023-05-02T06:58:02;100722.78;;;17.26;54.77
3748;BME280;1889;50.058;8.688;2023-05-02T07:00:31;100722.78;;;17.26;54.77
3748;BME280;1889;50.058;8.688;2023-05-02T07:03:01;100719.71;;;17.36;54.17
3748;BME280;1889;50.058;8.688;2023-05-02T07:05:30;100725.16;;;17.45;54.04
3748;BME280;1889;50.058;8.688;2023-05-02T07:07:59;100726.62;;;17.04;54.88
3748;BME280;1889;50.058;8.688;2023-05-02T07:10:29;100726.62;;;17.04;54.88
3748;BME280;1889;50.058;8.688;2023-05-02T07:12:58;100722.05;;;17.34;53.96
3748;BME280;1889;50.058;8.688;2023-05-02T07:15:27;100721.08;;;17.48;53.55
3748;BME280;1889;50.058;8.688;2023-05-02T07:17:57;100731.95;;;17.42;53.58
3748;BME280;1889;50.058;8.688;2023-05-02T07:20:26;100739.75;;;17.22;53.72
3748;BME280;1889;50.058;8.688;2023-05-02T07:22:55;100739.75;;;17.22;53.72
3748;BME280;1889;50.058;8.688;2023-05-02T07:25:25;100745.07;;;17.35;53.55
3748;BME280;1889;50.058;8.688;2023-05-02T07:27:54;100749.20;;;17.55;53.66
3748;BME280;1889;50.058;8.688;2023-05-02T07:30:23;100753.17;;;17.68;52.43
3748;BME280;1889;50.058;8.688;2023-05-02T07:32:53;100758.73;;;17.11;53.97
3748;BME280;1889;50.058;8.688;2023-05-02T07:35:22;100758.73;;;17.11;53.97
3748;BME280;1889;50.058;8.688;2023-05-02T07:37:51;100757.88;;;17.35;53.59
3748;BME280;1889;50.058;8.688;2023-05-02T07:40:21;100759.05;;;17.66;52.71
3748;BME280;1889;50.058;8.688;2023-05-02T07:42:50;100759.05;;;17.66;52.71
3748;BME280;1889;50.058;8.688;2023-05-02T07:45:19;100758.61;;;17.40;53.23
3748;BME280;1889;50.058;8.688;2023-05-02T07:47:49;100759.48;;;17.52;52.64
3748;BME280;1889;50.058;8.688;2023-05-02T07:50:18;100759.16;;;17.86;51.92
3748;BME280;1889;50.058;8.688;2023-05-02T07:52:48;100760.83;;;17.77;51.40
3748;BME280;1889;50.058;8.688;2023-05-02T07:55:17;100761.42;;;16.98;52.39
3748;BME280;1889;50.058;8.688;2023-05-02T07:57:46;100769.66;;;16.90;52.97
3748;BME280;1889;50.058;8.688;2023-05-02T08:00:16;100769.63;;;17.30;52.20
3748;BME280;1889;50.058;8.688;2023-05-02T08:02:45;100768.89;;;17.51;51.63
3748;BME280;1889;50.058;8.688;2023-05-02T08:05:15;100772.04;;;17.11;52.50
3748;BME280;1889;50.058;8.688;2023-05-02T08:07:44;100772.04;;;17.11;52.50
3748;BME280;1889;50.058;8.688;2023-05-02T08:10:14;100778.35;;;17.08;51.93
3748;BME280;1889;50.058;8.688;2023-05-02T08:12:43;100774.77;;;16.96;52.17
3748;BME280;1889;50.058;8.688;2023-05-02T08:15:12;100785.30;;;17.26;51.60
3748;BME280;1889;50.058;8.688;2023-05-02T08:17:42;100782.33;;;17.22;51.83
3748;BME280;1889;50.058;8.688;2023-05-02T08:20:11;100781.91;;;17.21;51.63
3748;BME280;1889;50.058;8.688;2023-05-02T08:22:40;100782.80;;;17.08;52.15
3748;BME280;1889;50.058;8.688;2023-05-02T08:25:10;100789.16;;;17.29;51.88
3748;BME280;1889;50.058;8.688;2023-05-02T08:27:39;100794.66;;;17.24;52.05
3748;BME280;1889;50.058;8.688;2023-05-02T08:30:09;100798.03;;;17.03;52.56
3748;BME280;1889;50.058;8.688;2023-05-02T08:32:38;100798.91;;;17.16;52.04
3748;BME280;1889;50.058;8.688;2023-05-02T08:35:07;100801.27;;;16.86;52.81
3748;BME280;1889;50.058;8.688;2023-05-02T08:37:38;100803.64;;;16.81;52.58
3748;BME280;1889;50.058;8.688;2023-05-02T08:40:10;100804.52;;;16.81;52.48
3748;BME280;1889;50.058;8.688;2023-05-02T08:42:41;100810.01;;;16.18;53.78
3748;BME280;1889;50.058;8.688;2023-05-02T08:45:12;100815.17;;;16.22;53.26
3748;BME280;1889;50.058;8.688;2023-05-02T08:47:42;100818.72;;;16.37;53.26
3748;BME280;1889;50.058;8.688;2023-05-02T08:50:12;100821.51;;;16.18;53.00
3748;BME280;1889;50.058;8.688;2023-05-02T08:52:43;100822.38;;;16.04;53.12
3748;BME280;1889;50.058;8.688;2023-05-02T08:55:14;100826.63;;;15.79;53.37
3748;BME280;1889;50.058;8.688;2023-05-02T08:57:43;100830.61;;;16.24;53.07
3748;BME280;1889;50.058;8.688;2023-05-02T09:00:13;100829.80;;;16.52;52.36
3748;BME280;1889;50.058;8.688;2023-05-02T09:03:17;100831.27;;;16.90;51.75
3748;BME280;1889;50.058;8.688;2023-05-02T09:05:23;100841.59;;;17.27;51.13
3748;BME280;1889;50.058;8.688;2023-05-02T09:07:53;100842.83;;;16.89;51.13
3748;BME280;1889;50.058;8.688;2023-05-02T09:10:24;100843.02;;;16.38;52.58
3748;BME280;1889;50.058;8.688;2023-05-02T09:12:53;100848.80;;;16.82;52.20
3748;BME280;1889;50.058;8.688;2023-05-02T09:15:23;100851.91;;;17.09;51.74
3748;BME280;1889;50.058;8.688;2023-05-02T09:17:52;100850.77;;;17.03;51.49
3748;BME280;1889;50.058;8.688;2023-05-02T09:20:21;100857.28;;;17.08;51.68
3748;BME280;1889;50.058;8.688;2023-05-02T09:22:51;100859.69;;;17.02;51.77
3748;BME280;1889;50.058;8.688;2023-05-02T09:25:21;100865.80;;;16.91;51.11
3748;BME280;1889;50.058;8.688;2023-05-02T09:27:54;100867.25;;;17.14;51.53
3748;BME280;1889;50.058;8.688;2023-05-02T09:30:26;100861.84;;;17.18;50.27
3748;BME280;1889;50.058;8.688;2023-05-02T09:32:55;100865.00;;;17.55;49.50
3748;BME280;1889;50.058;8.688;2023-05-02T09:35:24;100868.03;;;17.58;48.86
3748;BME280;1889;50.058;8.688;2023-05-02T09:37:57;100862.80;;;17.54;48.82
3748;BME280;1889;50.058;8.688;2023-05-02T09:40:27;100863.89;;;17.62;48.55
3748;BME280;1889;50.058;8.688;2023-05-02T09:42:57;100865.41;;;17.82;49.06
3748;BME280;1889;50.058;8.688;2023-05-02T09:45:26;100868.08;;;17.69;48.08
3748;BME280;1889;50.058;8.688;2023-05-02T09:48:00;100868.08;;;17.69;48.08
3748;BME280;1889;50.058;8.688;2023-05-02T09:50:32;100864.67;;;18.02;48.18
3748;BME280;1889;50.058;8.688;2023-05-02T09:53:03;100862.02;;;18.02;47.86
3748;BME280;1889;50.058;8.688;2023-05-02T09:55:32;100866.65;;;17.59;48.43
3748;BME280;1889;50.058;8.688;2023-05-02T09:58:02;100870.23;;;17.32;48.41
3748;BME280;1889;50.058;8.688;2023-05-02T10:00:45;100864.95;;;17.57;48.17
3748;BME280;1889;50.058;8.688;2023-05-02T10:03:17;100871.15;;;17.70;47.47
3748;BME280;1889;50.058;8.688;2023-05-02T10:05:44;100863.30;;;18.04;47.60
3748;BME280;1889;50.058;8.688;2023-05-02T10:08:15;100870.47;;;18.02;47.07
3748;BME280;1889;50.058;8.688;2023-05-02T10:10:54;100863.94;;;17.74;46.91
3748;BME280;1889;50.058;8.688;2023-05-02T10:13:26;100863.83;;;18.13;46.73
3748;BME280;1889;50.058;8.688;2023-05-02T10:16:01;100863.83;;;18.13;46.73
3748;BME280;1889;50.058;8.688;2023-05-02T10:18:44;100869.80;;;18.20;46.18
3748;BME280;1889;50.058;8.688;2023-05-02T10:21:15;100869.80;;;18.20;46.18
3748;BME280;1889;50.058;8.688;2023-05-02T10:23:46;100870.52;;;18.72;45.56
3748;BME280;1889;50.058;8.688;2023-05-02T10:26:16;100865.66;;;18.71;46.31
3748;BME280;1889;50.058;8.688;2023-05-02T10:28:47;100865.66;;;18.71;46.31
3748;BME280;1889;50.058;8.688;2023-05-02T10:31:17;100866.63;;;18.57;46.08
3748;BME280;1889;50.058;8.688;2023-05-02T10:33:49;100870.03;;;18.84;45.28
3748;BME280;1889;50.058;8.688;2023-05-02T10:36:22;100871.52;;;18.09;46.44
3748;BME280;1889;50.058;8.688;2023-05-02T10:38:51;100875.10;;;17.97;46.85
3748;BME280;1889;50.058;8.688;2023-05-02T10:41:23;100873.36;;;18.32;46.28
3748;BME280;1889;50.058;8.688;2023-05-02T10:43:53;100868.75;;;18.12;47.19
3748;BME280;1889;50.058;8.688;2023-05-02T10:46:29;100868.41;;;18.21;46.61
3748;BME280;1889;50.058;8.688;2023-05-02T10:49:01;100863.58;;;17.96;47.42
3748;BME280;1889;50.058;8.688;2023-05-02T10:51:31;100858.95;;;18.24;47.46
3748;BME280;1889;50.058;8.688;2023-05-02T10:54:22;100858.95;;;18.24;47.46
3748;BME280;1889;50.058;8.688;2023-05-02T10:57:02;100858.73;;;18.65;47.09
3748;BME280;1889;50.058;8.688;2023-05-02T10:59:37;100858.73;;;18.65;47.09
3748;BME280;1889;50.058;8.688;2023-05-02T11:05:05;100847.66;;;18.53;45.07
3748;BME280;1889;50.058;8.688;2023-05-02T11:07:35;100850.22;;;18.21;45.72
3748;BME280;1889;50.058;8.688;2023-05-02T11:12:53;100842.70;;;18.32;46.01
3748;BME280;1889;50.058;8.688;2023-05-02T11:18:16;100839.70;;;17.93;46.83
3748;BME280;1889;50.058;8.688;2023-05-02T11:20:40;100843.16;;;18.20;46.56
3748;BME280;1889;50.058;8.688;2023-05-02T11:23:20;100838.73;;;18.42;46.88
3748;BME280;1889;50.058;8.688;2023-05-02T11:25:54;100845.61;;;18.83;45.66
3748;BME280;1889;50.058;8.688;2023-05-02T11:28:42;100840.20;;;19.06;45.73
3748;BME280;1889;50.058;8.688;2023-05-02T11:34:02;100828.25;;;19.68;43.65
3748;BME280;1889;50.058;8.688;2023-05-02T11:36:32;100823.66;;;19.62;43.17
3748;BME280;1889;50.058;8.688;2023-05-02T11:39:03;100823.66;;;19.62;43.17
3748;BME280;1889;50.058;8.688;2023-05-02T11:41:41;100822.31;;;19.62;42.97
3748;BME280;1889;50.058;8.688;2023-05-02T11:44:11;100822.31;;;19.62;42.97
3748;BME280;1889;50.058;8.688;2023-05-02T11:46:40;100821.55;;;19.48;43.28
3748;BME280;1889;50.058;8.688;2023-05-02T11:49:10;100821.71;;;20.04;42.35
3748;BME280;1889;50.058;8.688;2023-05-02T11:51:40;100815.02;;;20.14;41.70
3748;BME280;1889;50.058;8.688;2023-05-02T11:54:20;100816.13;;;19.90;40.89
3748;BME280;1889;50.058;8.688;2023-05-02T11:56:49;100815.01;;;20.35;40.93
3748;BME280;1889;50.058;8.688;2023-05-02T11:59:19;100815.01;;;20.35;40.93
3748;BME280;1889;50.058;8.688;2023-05-02T12:01:49;100814.75;;;20.49;39.57
3748;BME280;1889;50.058;8.688;2023-05-02T12:04:20;100817.89;;;20.49;41.05
3748;BME280;1889;50.058;8.688;2023-05-02T12:06:54;100813.78;;;20.97;39.62
3748;BME280;1889;50.058;8.688;2023-05-02T12:09:24;100813.22;;;21.52;38.47
3748;BME280;1889;50.058;8.688;2023-05-02T12:11:53;100811.98;;;21.92;38.17
3748;BME280;1889;50.058;8.688;2023-05-02T12:14:30;100815.23;;;21.98;37.30
3748;BME280;1889;50.058;8.688;2023-05-02T12:17:03;100814.39;;;22.38;36.45
3748;BME280;1889;50.058;8.688;2023-05-02T12:19:32;100816.80;;;22.35;37.00
3748;BME280;1889;50.058;8.688;2023-05-02T12:22:03;100819.25;;;21.98;37.29
3748;BME280;1889;50.058;8.688;2023-05-02T12:24:34;100819.23;;;22.07;37.12
3748;BME280;1889;50.058;8.688;2023-05-02T12:27:13;100816.95;;;20.77;38.02
3748;BME280;1889;50.058;8.688;2023-05-02T12:29:42;100831.66;;;20.50;38.86
3748;BME280;1889;50.058;8.688;2023-05-02T12:32:13;100835.78;;;20.57;38.90
3748;BME280;1889;50.058;8.688;2023-05-02T12:34:42;100838.17;;;19.55;40.57
3748;BME280;1889;50.058;8.688;2023-05-02T12:37:11;100838.17;;;19.55;40.57
3748;BME280;1889;50.058;8.688;2023-05-02T12:39:41;100858.02;;;19.27;43.88
3748;BME280;1889;50.058;8.688;2023-05-02T12:42:12;100873.03;;;18.64;48.26
3748;BME280;1889;50.058;8.688;2023-05-02T12:44:44;100878.64;;;18.09;52.51
3748;BME280;1889;50.058;8.688;2023-05-02T12:47:15;100878.45;;;17.77;55.27
3748;BME280;1889;50.058;8.688;2023-05-02T12:49:52;100865.34;;;18.44;55.18
3748;BME280;1889;50.058;8.688;2023-05-02T12:52:50;100865.34;;;18.44;55.18
3748;BME280;1889;50.058;8.688;2023-05-02T12:55:22;100860.42;;;18.68;56.75
3748;BME280;1889;50.058;8.688;2023-05-02T12:58:10;100860.42;;;18.68;56.75
3748;BME280;1889;50.058;8.688;2023-05-02T13:00:37;100866.63;;;18.80;56.70
3748;BME280;1889;50.058;8.688;2023-05-02T13:03:08;100871.34;;;17.77;65.17
3748;BME280;1889;50.058;8.688;2023-05-02T13:05:38;100877.17;;;18.00;62.40
3748;BME280;1889;50.058;8.688;2023-05-02T13:08:07;100873.57;;;18.14;61.30
3748;BME280;1889;50.058;8.688;2023-05-02T13:10:36;100870.02;;;18.49;60.81
3748;BME280;1889;50.058;8.688;2023-05-02T13:13:05;100867.06;;;18.10;63.60
3748;BME280;1889;50.058;8.688;2023-05-02T13:15:34;100866.95;;;18.13;62.39
3748;BME280;1889;50.058;8.688;2023-05-02T13:18:04;100866.95;;;18.13;62.39
3748;BME280;1889;50.058;8.688;2023-05-02T13:20:33;100872.43;;;19.01;59.33
3748;BME280;1889;50.058;8.688;2023-05-02T13:23:02;100872.43;;;19.01;59.33
3748;BME280;1889;50.058;8.688;2023-05-02T13:25:32;100871.69;;;19.30;56.82
3748;BME280;1889;50.058;8.688;2023-05-02T13:28:01;100871.58;;;19.65;55.06
3748;BME280;1889;50.058;8.688;2023-05-02T13:30:30;100868.58;;;19.52;53.33
3748;BME280;1889;50.058;8.688;2023-05-02T13:33:00;100863.83;;;19.59;52.52
3748;BME280;1889;50.058;8.688;2023-05-02T13:35:29;100876.80;;;18.92;49.03
3748;BME280;1889;50.058;8.688;2023-05-02T13:37:58;100876.80;;;18.92;49.03
3748;BME280;1889;50.058;8.688;2023-05-02T13:40:27;100879.55;;;19.13;49.67
3748;BME280;1889;50.058;8.688;2023-05-02T13:42:57;100872.98;;;18.41;53.88
3748;BME280;1889;50.058;8.688;2023-05-02T13:45:26;100882.71;;;18.19;56.54
3748;BME280;1889;50.058;8.688;2023-05-02T13:47:55;100874.33;;;18.53;55.39
3748;BME280;1889;50.058;8.688;2023-05-02T13:50:24;100874.44;;;18.73;54.25
3748;BME280;1889;50.058;8.688;2023-05-02T13:52:54;100875.34;;;18.62;54.02